Terminal Aerodrome Forecast
Issued by NWS Spokane, WA

Home | Current Version | Previous Version | Text Only | Print | Product List | Glossary On
Versions: 1 2 3 4 5 6 7 8 9 10 11 12 13 14 15 16 17 18 19 20 21 22 23 24
000
FTUS46 KOTX 020537
TAFLWS
TAF
KLWS 020537Z 0206/0306 08007KT P6SM BKN150
     FM021200 08004KT P6SM SCT200
     FM022000 02006KT P6SM VCTS SCT100CB BKN200
     FM030400 19005KT P6SM SCT120 OVC150=

USA.gov is the U.S. government's official web portal to all federal, state and local government web resources and services.